createdAt,value
2023-04-19T00:00:09.017Z,9.31
2023-04-19T00:02:38.178Z,9.29
2023-04-19T00:05:06.604Z,9.27
2023-04-19T00:07:36.312Z,9.27
2023-04-19T00:10:04.477Z,9.27
2023-04-19T00:12:32.590Z,9.26
2023-04-19T00:15:00.398Z,9.24
2023-04-19T00:17:29.137Z,9.22
2023-04-19T00:19:57.741Z,9.22
2023-04-19T00:22:26.254Z,9.21
2023-04-19T00:24:54.158Z,9.20
2023-04-19T00:27:21.900Z,9.20
2023-04-19T00:29:49.679Z,9.22
2023-04-19T00:32:17.575Z,9.21
2023-04-19T00:34:45.462Z,9.22
2023-04-19T00:37:13.343Z,9.23
2023-04-19T00:39:41.190Z,9.24
2023-04-19T00:42:09.820Z,9.24
2023-04-19T00:44:37.688Z,9.25
2023-04-19T00:47:05.702Z,9.25
2023-04-19T00:49:34.109Z,9.25
2023-04-19T00:52:02.012Z,9.24
2023-04-19T00:54:29.988Z,9.25
2023-04-19T00:56:58.485Z,9.27
2023-04-19T00:59:26.217Z,9.28
2023-04-19T01:01:54.168Z,9.28
2023-04-19T01:04:23.210Z,9.26
2023-04-19T01:06:51.455Z,9.25
2023-04-19T01:09:19.409Z,9.25
2023-04-19T01:11:47.442Z,9.26
2023-04-19T01:14:16.294Z,9.27
2023-04-19T01:16:48.113Z,9.27
2023-04-19T01:19:16.848Z,9.25
2023-04-19T01:21:46.505Z,9.22
2023-04-19T01:24:14.520Z,9.21
2023-04-19T01:26:42.846Z,9.19
2023-04-19T01:29:10.718Z,9.18
2023-04-19T01:31:39.016Z,9.19
2023-04-19T01:34:07.018Z,9.17
2023-04-19T01:36:35.072Z,9.15
2023-04-19T01:39:02.978Z,9.09
2023-04-19T01:41:32.482Z,9.05
2023-04-19T01:44:01.215Z,9.01
2023-04-19T01:46:29.418Z,8.96
2023-04-19T01:48:57.432Z,8.93
2023-04-19T01:51:25.958Z,8.88
2023-04-19T01:53:54.749Z,8.82
2023-04-19T01:56:24.095Z,8.79
2023-04-19T01:58:51.890Z,8.74
2023-04-19T02:01:20.221Z,8.67
2023-04-19T02:03:48.292Z,8.62
2023-04-19T02:06:16.274Z,8.56
2023-04-19T02:08:44.021Z,8.51
2023-04-19T02:11:14.586Z,8.46
2023-04-19T02:13:42.986Z,8.40
2023-04-19T02:16:10.983Z,8.35
2023-04-19T02:18:39.479Z,8.31
2023-04-19T02:21:07.861Z,8.26
2023-04-19T02:23:35.746Z,8.25
2023-04-19T02:26:03.721Z,8.24
2023-04-19T02:28:31.912Z,8.21
2023-04-19T02:30:59.772Z,8.19
2023-04-19T02:33:29.239Z,8.18
2023-04-19T02:35:57.090Z,8.18
2023-04-19T02:38:24.902Z,8.18
2023-04-19T02:40:54.902Z,8.18
2023-04-19T02:43:22.751Z,8.20
2023-04-19T02:45:51.419Z,8.22
2023-04-19T02:48:19.939Z,8.24
2023-04-19T02:50:48.254Z,8.27
2023-04-19T02:53:16.219Z,8.28
2023-04-19T02:55:44.347Z,8.30
2023-04-19T02:58:16.442Z,8.32
2023-04-19T03:00:53.148Z,8.34
2023-04-19T03:03:22.748Z,8.35
2023-04-19T03:05:50.929Z,8.36
2023-04-19T03:08:19.552Z,8.36
2023-04-19T03:10:47.428Z,8.37
2023-04-19T03:13:16.394Z,8.38
2023-04-19T03:15:44.306Z,8.38
2023-04-19T03:18:12.859Z,8.38
2023-04-19T03:21:14.709Z,8.38
2023-04-19T03:23:57.049Z,8.37
2023-04-19T03:26:25.819Z,8.37
2023-04-19T03:28:55.216Z,8.37
2023-04-19T03:31:35.841Z,8.34
2023-04-19T03:34:04.368Z,8.34
2023-04-19T03:36:39.071Z,8.35
2023-04-19T03:39:07.020Z,8.36
2023-04-19T03:41:36.172Z,8.37
2023-04-19T03:44:09.499Z,8.40
2023-04-19T03:46:38.459Z,8.43
2023-04-19T03:49:06.751Z,8.47
2023-04-19T03:51:35.993Z,8.49
2023-04-19T03:54:04.541Z,8.51
2023-04-19T03:56:35.382Z,8.55
2023-04-19T03:59:03.196Z,8.57
2023-04-19T04:01:31.497Z,8.58
2023-04-19T04:04:00.110Z,8.61
2023-04-19T04:06:30.245Z,8.64
2023-04-19T04:08:59.204Z,8.66
2023-04-19T04:11:27.454Z,8.70
2023-04-19T04:13:56.044Z,8.73
2023-04-19T04:16:27.447Z,8.79
2023-04-19T04:18:55.852Z,8.85
2023-04-19T04:21:27.355Z,8.91
2023-04-19T04:23:56.924Z,8.98
2023-04-19T04:26:34.033Z,9.04
2023-04-19T04:29:25.062Z,9.12
2023-04-19T04:31:54.187Z,9.18
2023-04-19T04:34:25.932Z,9.24
2023-04-19T04:36:59.521Z,9.28
2023-04-19T04:39:27.402Z,9.32
2023-04-19T04:41:57.662Z,9.36
2023-04-19T04:44:26.099Z,9.40
2023-04-19T04:46:54.280Z,9.46
2023-04-19T04:49:25.480Z,9.53
2023-04-19T04:51:53.575Z,9.56
2023-04-19T04:54:22.013Z,9.62
2023-04-19T04:56:50.054Z,9.68
2023-04-19T04:59:19.031Z,9.76
2023-04-19T05:01:48.960Z,9.85
2023-04-19T05:04:17.702Z,9.93
2023-04-19T05:06:46.051Z,10.01
2023-04-19T05:09:15.943Z,10.08
2023-04-19T05:11:43.750Z,10.17
2023-04-19T05:14:12.845Z,10.24
2023-04-19T05:16:40.792Z,10.30
2023-04-19T05:19:08.664Z,10.34
2023-04-19T05:21:40.719Z,10.42
2023-04-19T05:24:10.141Z,10.47
2023-04-19T05:26:38.173Z,10.50
2023-04-19T05:29:06.249Z,10.51
2023-04-19T05:31:52.224Z,10.53
2023-04-19T05:34:26.617Z,10.53
2023-04-19T05:36:54.812Z,10.52
2023-04-19T05:39:22.697Z,10.52
2023-04-19T05:41:50.698Z,10.53
2023-04-19T05:44:18.709Z,10.53
2023-04-19T05:46:46.469Z,10.55
2023-04-19T05:49:16.095Z,10.57
2023-04-19T05:52:15.841Z,10.59
2023-04-19T05:54:56.119Z,10.61
2023-04-19T05:57:23.936Z,10.64
2023-04-19T05:59:51.842Z,10.66
2023-04-19T06:02:22.696Z,10.67
2023-04-19T06:04:50.822Z,10.68
2023-04-19T06:07:31.151Z,10.70
2023-04-19T06:10:00.687Z,10.75
2023-04-19T06:12:28.722Z,10.79
2023-04-19T06:14:56.632Z,10.85
2023-04-19T06:17:25.776Z,10.92
2023-04-19T06:19:53.872Z,11.00
2023-04-19T06:22:21.662Z,11.10
2023-04-19T06:24:49.553Z,11.17
2023-04-19T06:27:17.733Z,11.29
2023-04-19T06:29:45.853Z,11.39
2023-04-19T06:32:13.617Z,11.47
2023-04-19T06:34:41.459Z,11.57
2023-04-19T06:37:09.408Z,11.63
2023-04-19T06:39:37.301Z,11.72
2023-04-19T06:42:05.571Z,11.82
2023-04-19T06:44:34.779Z,11.92
2023-04-19T06:47:02.647Z,11.99
2023-04-19T06:49:31.885Z,12.05
2023-04-19T06:51:59.897Z,12.12
2023-04-19T06:54:27.874Z,12.17
2023-04-19T06:56:56.171Z,12.24
2023-04-19T06:59:25.274Z,12.30
2023-04-19T07:01:53.088Z,12.37
2023-04-19T07:04:21.284Z,12.47
2023-04-19T07:06:50.063Z,12.56
2023-04-19T07:09:17.836Z,12.66
2023-04-19T07:11:47.651Z,12.71
2023-04-19T07:14:15.771Z,12.76
2023-04-19T07:16:43.861Z,12.84
2023-04-19T07:19:11.887Z,12.89
2023-04-19T07:21:39.815Z,12.93
2023-04-19T07:24:07.577Z,12.96
2023-04-19T07:26:35.635Z,13.00
2023-04-19T07:29:03.687Z,13.10
2023-04-19T07:31:31.710Z,13.19
2023-04-19T07:33:59.409Z,13.29
2023-04-19T07:36:27.805Z,13.38
2023-04-19T07:38:55.502Z,13.45
2023-04-19T07:41:23.717Z,13.52
2023-04-19T07:43:51.499Z,13.58
2023-04-19T07:46:19.337Z,13.65
2023-04-19T07:48:47.183Z,13.73
2023-04-19T07:51:16.660Z,13.76
2023-04-19T07:53:44.463Z,13.82
2023-04-19T07:56:13.048Z,13.90
2023-04-19T07:58:41.865Z,13.99
2023-04-19T08:01:10.213Z,14.08
2023-04-19T08:03:38.975Z,14.12
2023-04-19T08:06:10.130Z,14.21
2023-04-19T08:08:37.942Z,14.31
2023-04-19T08:11:06.323Z,14.38
2023-04-19T08:13:34.322Z,14.37
2023-04-19T08:18:34.055Z,14.41
2023-04-19T08:21:02.084Z,14.50
2023-04-19T08:23:38.030Z,14.56
2023-04-19T08:26:15.478Z,14.63
2023-04-19T08:28:43.427Z,14.68
2023-04-19T08:31:11.403Z,14.76
2023-04-19T08:33:40.086Z,14.84
2023-04-19T08:36:08.673Z,14.87
2023-04-19T08:38:38.970Z,14.88
2023-04-19T08:41:06.667Z,14.96
2023-04-19T08:43:35.695Z,15.04
2023-04-19T08:46:04.264Z,15.14
2023-04-19T08:48:33.408Z,15.24
2023-04-19T08:51:05.596Z,15.35
2023-04-19T08:53:34.752Z,15.43
2023-04-19T08:58:51.963Z,15.57
2023-04-19T09:01:34.962Z,15.63
2023-04-19T09:04:21.609Z,15.70
2023-04-19T09:06:53.815Z,15.76
2023-04-19T09:11:53.116Z,15.76
2023-04-19T09:14:21.258Z,15.80
2023-04-19T09:16:49.488Z,15.90
2023-04-19T09:19:24.338Z,15.97
2023-04-19T09:21:54.712Z,16.10
2023-04-19T09:25:13.951Z,16.22
2023-04-19T09:27:28.111Z,16.35
2023-04-19T09:29:59.602Z,16.36
2023-04-19T09:32:28.082Z,16.35
2023-04-19T09:34:59.619Z,16.38
2023-04-19T09:39:58.480Z,16.34
2023-04-19T09:48:00.640Z,16.38
2023-04-19T09:50:28.871Z,16.42
2023-04-19T09:52:57.579Z,16.44
2023-04-19T09:55:29.025Z,16.52
2023-04-19T09:57:57.633Z,16.63
2023-04-19T10:00:25.586Z,16.73
2023-04-19T10:02:58.413Z,16.81
2023-04-19T10:05:26.802Z,16.84
2023-04-19T10:07:59.526Z,16.85
2023-04-19T10:10:41.426Z,16.89
2023-04-19T10:15:51.101Z,16.94
2023-04-19T10:18:21.620Z,16.98
2023-04-19T10:20:57.361Z,16.99
2023-04-19T10:23:25.237Z,17.00
2023-04-19T10:25:57.105Z,16.97
2023-04-19T10:28:24.818Z,16.92
2023-04-19T10:31:01.642Z,16.91
2023-04-19T10:33:36.879Z,16.99
2023-04-19T10:36:07.501Z,17.06
2023-04-19T10:38:36.709Z,17.06
2023-04-19T10:41:05.499Z,17.14
2023-04-19T10:43:34.550Z,17.27
2023-04-19T10:46:09.736Z,17.39
2023-04-19T10:48:38.774Z,17.51
2023-04-19T10:51:16.748Z,17.57
2023-04-19T10:53:50.975Z,17.60
2023-04-19T10:56:23.099Z,17.65
2023-04-19T10:59:11.702Z,17.65
2023-04-19T11:01:59.876Z,17.57
2023-04-19T11:04:31.322Z,17.53
2023-04-19T11:07:03.112Z,17.43
2023-04-19T11:09:42.328Z,17.40
2023-04-19T11:12:13.778Z,17.53
2023-04-19T11:14:42.271Z,17.48
2023-04-19T11:17:19.414Z,17.31
2023-04-19T11:19:53.917Z,17.33
2023-04-19T11:22:45.190Z,17.31
2023-04-19T11:25:13.937Z,17.34
2023-04-19T11:27:43.102Z,17.44
2023-04-19T11:30:14.334Z,17.49
2023-04-19T11:33:01.031Z,17.44
2023-04-19T11:35:30.484Z,17.40
2023-04-19T11:37:58.702Z,17.40
2023-04-19T11:40:26.818Z,17.32
2023-04-19T11:42:55.531Z,17.18
2023-04-19T11:45:30.187Z,17.18
2023-04-19T11:47:59.000Z,17.21
2023-04-19T11:50:30.623Z,17.20
2023-04-19T11:52:59.167Z,17.13
2023-04-19T11:55:26.951Z,17.06
2023-04-19T11:57:55.007Z,16.93
2023-04-19T12:00:30.703Z,16.88
2023-04-19T12:02:58.995Z,16.91
2023-04-19T12:05:27.547Z,16.92
2023-04-19T12:08:05.214Z,16.93
2023-04-19T12:10:33.093Z,16.97
2023-04-19T12:13:00.948Z,17.00
2023-04-19T12:15:42.557Z,17.02
2023-04-19T12:18:10.526Z,17.00
2023-04-19T12:20:38.944Z,16.95
2023-04-19T12:23:11.195Z,16.94
2023-04-19T12:25:39.263Z,16.89
2023-04-19T12:28:07.259Z,16.79
2023-04-19T12:30:36.461Z,16.74
2023-04-19T12:33:04.573Z,16.72
2023-04-19T12:35:34.130Z,16.72
2023-04-19T12:38:02.917Z,16.72
2023-04-19T12:40:31.064Z,16.68
2023-04-19T12:42:58.799Z,16.65
2023-04-19T12:45:26.899Z,16.61
2023-04-19T12:47:54.740Z,16.55
2023-04-19T12:50:22.707Z,16.49
2023-04-19T12:52:51.992Z,16.41
2023-04-19T12:55:20.131Z,16.33
2023-04-19T12:57:48.169Z,16.27
2023-04-19T13:00:17.653Z,16.22
2023-04-19T13:02:45.938Z,16.19
2023-04-19T13:05:13.866Z,16.15
2023-04-19T13:07:41.884Z,16.07
2023-04-19T13:10:09.938Z,15.99
2023-04-19T13:12:38.050Z,15.94
2023-04-19T13:15:06.249Z,15.87
2023-04-19T13:17:35.789Z,15.87
2023-04-19T13:20:04.434Z,15.87
2023-04-19T13:22:32.759Z,15.80
2023-04-19T13:25:00.624Z,15.73
2023-04-19T13:27:28.813Z,15.74
2023-04-19T13:29:56.901Z,15.73
2023-04-19T13:32:25.005Z,15.68
2023-04-19T13:34:53.089Z,15.64
2023-04-19T13:37:20.890Z,15.60
2023-04-19T13:39:48.964Z,15.53
2023-04-19T13:42:16.765Z,15.50
2023-04-19T13:44:44.650Z,15.47
2023-04-19T13:47:12.434Z,15.45
2023-04-19T13:49:40.268Z,15.39
2023-04-19T13:52:08.258Z,15.33
2023-04-19T13:54:35.986Z,15.27
2023-04-19T13:57:03.869Z,15.20
2023-04-19T13:59:31.697Z,15.17
2023-04-19T14:01:59.895Z,15.16
2023-04-19T14:04:27.850Z,15.11
2023-04-19T14:06:55.988Z,15.07
2023-04-19T14:09:24.050Z,15.06
2023-04-19T14:11:51.834Z,15.07
2023-04-19T14:14:19.744Z,15.03
2023-04-19T14:16:47.959Z,15.01
2023-04-19T14:19:15.793Z,14.96
2023-04-19T14:21:43.614Z,14.93
2023-04-19T14:24:11.355Z,14.91
2023-04-19T14:26:39.199Z,14.88
2023-04-19T14:29:06.982Z,14.82
2023-04-19T14:31:34.925Z,14.73
2023-04-19T14:34:03.148Z,14.62
2023-04-19T14:36:31.347Z,14.52
2023-04-19T14:38:59.150Z,14.46
2023-04-19T14:41:27.216Z,14.40
2023-04-19T14:43:56.227Z,14.36
2023-04-19T14:46:24.061Z,14.31
2023-04-19T14:48:52.085Z,14.30
2023-04-19T14:51:19.843Z,14.29
2023-04-19T14:53:47.786Z,14.25
2023-04-19T14:56:15.572Z,14.16
2023-04-19T14:58:43.438Z,14.14
2023-04-19T15:01:14.189Z,14.12
2023-04-19T15:03:43.441Z,14.11
2023-04-19T15:06:11.511Z,14.10
2023-04-19T15:08:40.496Z,14.11
2023-04-19T15:11:08.653Z,14.12
2023-04-19T15:13:36.572Z,14.10
2023-04-19T15:16:05.863Z,14.09
2023-04-19T15:18:33.899Z,14.06
2023-04-19T15:21:04.970Z,14.06
2023-04-19T15:23:33.237Z,14.05
2023-04-19T15:26:00.986Z,14.06
2023-04-19T15:28:29.024Z,14.07
2023-04-19T15:31:00.323Z,14.06
2023-04-19T15:33:28.371Z,14.04
2023-04-19T15:35:56.425Z,14.05
2023-04-19T15:38:24.966Z,14.06
2023-04-19T15:40:53.811Z,14.09
2023-04-19T15:43:22.131Z,14.11
2023-04-19T15:45:50.273Z,14.12
2023-04-19T15:48:18.241Z,14.10
2023-04-19T15:50:45.994Z,14.08
2023-04-19T15:53:13.811Z,14.09
2023-04-19T15:55:41.789Z,14.07
2023-04-19T15:58:09.566Z,14.01
2023-04-19T16:00:37.334Z,14.02
2023-04-19T16:03:05.369Z,14.02
2023-04-19T16:05:34.852Z,14.01
2023-04-19T16:08:09.385Z,14.00
2023-04-19T16:10:37.482Z,14.01
2023-04-19T16:13:08.406Z,14.03
2023-04-19T16:15:36.232Z,14.04
2023-04-19T16:18:04.284Z,14.05
2023-04-19T16:20:32.190Z,14.05
2023-04-19T16:23:03.397Z,14.05
2023-04-19T16:25:31.501Z,14.06
2023-04-19T16:27:59.547Z,14.05
2023-04-19T16:30:27.388Z,14.06
2023-04-19T16:32:55.664Z,14.06
2023-04-19T16:35:23.951Z,14.05
2023-04-19T16:37:54.037Z,13.99
2023-04-19T16:40:23.139Z,13.93
2023-04-19T16:42:51.085Z,13.89
2023-04-19T16:45:18.954Z,13.88
2023-04-19T16:47:46.925Z,13.87
2023-04-19T16:50:14.788Z,13.88
2023-04-19T16:52:42.654Z,13.87
2023-04-19T16:55:10.379Z,13.82
2023-04-19T16:57:38.482Z,13.74
2023-04-19T17:00:10.299Z,13.69
2023-04-19T17:02:39.090Z,13.64
2023-04-19T17:05:07.398Z,13.59
2023-04-19T17:07:36.868Z,13.55
2023-04-19T17:10:05.062Z,13.51
2023-04-19T17:12:33.287Z,13.48
2023-04-19T17:15:01.248Z,13.47
2023-04-19T17:17:29.378Z,13.47
2023-04-19T17:19:57.801Z,13.46
2023-04-19T17:22:25.821Z,13.44
2023-04-19T17:24:55.929Z,13.42
2023-04-19T17:27:23.681Z,13.38
2023-04-19T17:29:51.478Z,13.33
2023-04-19T17:32:19.308Z,13.30
2023-04-19T17:34:47.267Z,13.27
2023-04-19T17:37:15.071Z,13.24
2023-04-19T17:39:43.047Z,13.22
2023-04-19T17:42:10.763Z,13.16
2023-04-19T17:44:38.486Z,13.12
2023-04-19T17:47:06.706Z,13.10
2023-04-19T17:49:34.643Z,13.10
2023-04-19T17:52:02.496Z,13.13
2023-04-19T17:54:30.534Z,13.12
2023-04-19T17:56:59.449Z,13.13
2023-04-19T17:59:27.498Z,13.15
2023-04-19T18:01:56.765Z,13.17
2023-04-19T18:04:24.671Z,13.18
2023-04-19T18:06:52.758Z,13.19
2023-04-19T18:09:20.855Z,13.18
2023-04-19T18:11:48.652Z,13.21
2023-04-19T18:14:16.522Z,13.22
2023-04-19T18:16:44.603Z,13.21
2023-04-19T18:19:12.388Z,13.20
2023-04-19T18:21:40.284Z,13.19
2023-04-19T18:24:08.159Z,13.20
2023-04-19T18:26:36.507Z,13.18
2023-04-19T18:29:04.334Z,13.14
2023-04-19T18:31:32.141Z,13.13
2023-04-19T18:34:00.489Z,13.10
2023-04-19T18:36:28.934Z,13.08
2023-04-19T18:38:56.831Z,13.02
2023-04-19T18:41:24.708Z,12.97
2023-04-19T18:44:25.797Z,12.96
2023-04-19T18:46:42.525Z,12.90
2023-04-19T18:49:10.471Z,12.88
2023-04-19T18:51:38.469Z,12.83
2023-04-19T18:54:06.333Z,12.77
2023-04-19T18:59:05.025Z,12.63
2023-04-19T19:01:33.418Z,12.60
2023-04-19T19:04:23.966Z,12.55
2023-04-19T19:06:50.113Z,12.51
2023-04-19T19:09:18.462Z,12.49
2023-04-19T19:11:55.997Z,12.48
2023-04-19T19:14:24.926Z,12.49
2023-04-19T19:16:53.133Z,12.48
2023-04-19T19:19:22.669Z,12.43
2023-04-19T19:21:52.219Z,12.39
2023-04-19T19:24:20.053Z,12.32
2023-04-19T19:26:48.335Z,12.25
2023-04-19T19:29:16.722Z,12.19
2023-04-19T19:31:44.615Z,12.07
2023-04-19T19:34:23.365Z,11.98
2023-04-19T19:36:55.538Z,11.93
2023-04-19T19:39:23.397Z,11.88
2023-04-19T19:42:05.487Z,11.84
2023-04-19T19:44:34.604Z,11.78
2023-04-19T19:47:02.558Z,11.72
2023-04-19T19:49:45.663Z,11.69
2023-04-19T19:52:22.030Z,11.68
2023-04-19T19:54:49.737Z,11.66
2023-04-19T19:59:54.551Z,11.63
2023-04-19T20:02:24.482Z,11.63
2023-04-19T20:04:52.688Z,11.61
2023-04-19T20:09:52.482Z,11.58
2023-04-19T20:12:20.944Z,11.54
2023-04-19T20:14:48.805Z,11.53
2023-04-19T20:17:16.804Z,11.53
2023-04-19T20:19:45.047Z,11.53
2023-04-19T20:22:12.774Z,11.47
2023-04-19T20:24:42.230Z,11.38
2023-04-19T20:27:10.032Z,11.31
2023-04-19T20:29:37.810Z,11.28
2023-04-19T20:32:05.965Z,11.26
2023-04-19T20:34:34.198Z,11.25
2023-04-19T20:37:03.989Z,11.20
2023-04-19T20:39:31.860Z,11.12
2023-04-19T20:41:59.702Z,11.06
2023-04-19T20:44:27.651Z,11.02
2023-04-19T20:46:56.278Z,10.97
2023-04-19T20:49:24.100Z,10.93
2023-04-19T20:51:52.006Z,10.92
2023-04-19T20:54:19.867Z,10.89
2023-04-19T20:56:47.757Z,10.85
2023-04-19T20:59:15.807Z,10.83
2023-04-19T21:01:43.940Z,10.78
2023-04-19T21:04:12.221Z,10.73
2023-04-19T21:06:40.366Z,10.71
2023-04-19T21:09:08.404Z,10.67
2023-04-19T21:11:36.298Z,10.63
2023-04-19T21:14:04.517Z,10.60
2023-04-19T21:16:33.745Z,10.59
2023-04-19T21:19:01.934Z,10.59
2023-04-19T21:21:32.471Z,10.59
2023-04-19T21:24:00.476Z,10.57
2023-04-19T21:26:28.392Z,10.56
2023-04-19T21:28:56.169Z,10.54
2023-04-19T21:31:23.950Z,10.52
2023-04-19T21:33:51.838Z,10.49
2023-04-19T21:36:19.565Z,10.47
2023-04-19T21:38:47.293Z,10.45
2023-04-19T21:41:15.041Z,10.44
2023-04-19T21:43:42.898Z,10.41
2023-04-19T21:46:11.061Z,10.38
2023-04-19T21:48:39.569Z,10.37
2023-04-19T21:51:07.709Z,10.36
2023-04-19T21:53:36.332Z,10.34
2023-04-19T21:56:04.441Z,10.31
2023-04-19T21:58:32.397Z,10.29
2023-04-19T22:01:00.676Z,10.27
2023-04-19T22:03:28.743Z,10.24
2023-04-19T22:06:01.801Z,10.23
2023-04-19T22:08:32.162Z,10.21
2023-04-19T22:11:01.197Z,10.19
2023-04-19T22:13:30.179Z,10.17
2023-04-19T22:16:01.229Z,10.16
2023-04-19T22:18:29.238Z,10.15
2023-04-19T22:20:57.211Z,10.14
2023-04-19T22:23:25.074Z,10.11
2023-04-19T22:25:52.890Z,10.10
2023-04-19T22:28:20.759Z,10.09
2023-04-19T22:30:48.643Z,10.10
2023-04-19T22:33:16.630Z,10.08
2023-04-19T22:35:44.616Z,10.08
2023-04-19T22:38:12.490Z,10.07
2023-04-19T22:40:40.463Z,10.07
2023-04-19T22:43:08.311Z,10.06
2023-04-19T22:45:36.101Z,10.05
2023-04-19T22:48:04.201Z,10.04
2023-04-19T22:50:32.375Z,10.03
2023-04-19T22:53:00.404Z,10.01
2023-04-19T22:55:28.272Z,10.00
2023-04-19T22:57:56.386Z,9.99
2023-04-19T23:00:24.150Z,9.98
2023-04-19T23:02:52.080Z,9.99
2023-04-19T23:05:20.165Z,10.00
2023-04-19T23:07:49.686Z,9.97
2023-04-19T23:10:18.436Z,9.97
2023-04-19T23:12:49.392Z,9.95
2023-04-19T23:15:17.225Z,9.95
2023-04-19T23:17:45.225Z,9.99
2023-04-19T23:20:13.269Z,10.02
2023-04-19T23:22:41.250Z,10.02
2023-04-19T23:25:09.175Z,10.02
2023-04-19T23:27:37.031Z,10.02
2023-04-19T23:30:05.646Z,10.04
2023-04-19T23:32:33.542Z,10.05
2023-04-19T23:35:01.287Z,10.02
2023-04-19T23:37:29.472Z,10.03
2023-04-19T23:39:57.481Z,10.03
2023-04-19T23:42:25.261Z,10.03
2023-04-19T23:44:55.211Z,10.06
2023-04-19T23:47:23.254Z,10.07
2023-04-19T23:49:51.419Z,10.09
2023-04-19T23:52:22.665Z,10.09
2023-04-19T23:54:50.594Z,10.11
2023-04-19T23:57:18.687Z,10.07
2023-04-19T23:59:46.544Z,10.05
